createdAt,value
2024-01-11T00:01:24.397Z,95014.59
2024-01-11T00:03:51.093Z,95014.06
2024-01-11T00:06:17.937Z,95011.59
2024-01-11T00:08:44.764Z,95008.81
2024-01-11T00:11:11.925Z,95008.22
2024-01-11T00:13:38.657Z,95006.94
2024-01-11T00:16:05.632Z,95000.81
2024-01-11T00:18:32.480Z,94998.94
2024-01-11T00:20:59.206Z,94998.22
2024-01-11T00:23:25.888Z,95007.03
2024-01-11T00:25:52.678Z,95001.09
2024-01-11T00:28:19.361Z,94999.56
2024-01-11T00:30:46.057Z,94999.00
2024-01-11T00:33:12.767Z,94998.72
2024-01-11T00:35:39.566Z,94991.50
2024-01-11T00:38:06.415Z,95003.97
2024-01-11T00:40:33.066Z,94993.84
2024-01-11T00:42:59.775Z,94992.09
2024-01-11T00:45:26.421Z,94993.34
2024-01-11T00:47:53.267Z,94991.72
2024-01-11T00:50:20.039Z,94989.72
2024-01-11T00:52:46.872Z,94985.84
2024-01-11T00:55:13.628Z,94987.50
2024-01-11T00:57:40.304Z,94977.69
2024-01-11T01:00:07.755Z,94979.78
2024-01-11T01:02:35.679Z,94976.31
2024-01-11T01:05:02.501Z,94971.09
2024-01-11T01:07:29.278Z,94973.63
2024-01-11T01:09:55.948Z,94970.56
2024-01-11T01:12:22.562Z,94974.31
2024-01-11T01:14:49.264Z,94969.59
2024-01-11T01:17:17.398Z,94974.84
2024-01-11T01:19:45.379Z,94966.75
2024-01-11T01:22:12.048Z,94975.25
2024-01-11T01:24:38.747Z,94972.56
2024-01-11T01:27:05.528Z,94975.78
2024-01-11T01:29:32.241Z,94972.97
2024-01-11T01:31:58.910Z,94967.63
2024-01-11T01:34:25.677Z,94973.81
2024-01-11T01:36:52.546Z,94969.97
2024-01-11T01:39:19.252Z,94967.66
2024-01-11T01:41:45.946Z,94957.66
2024-01-11T01:44:12.627Z,94946.09
2024-01-11T01:46:39.690Z,94946.72
2024-01-11T01:49:07.145Z,94938.63
2024-01-11T01:51:34.807Z,94944.03
2024-01-11T01:54:03.950Z,94932.56
2024-01-11T01:56:31.204Z,94936.66
2024-01-11T01:59:00.038Z,94931.16
2024-01-11T02:01:28.739Z,94927.91
2024-01-11T02:03:56.675Z,94928.59
2024-01-11T02:06:26.498Z,94924.38
2024-01-11T02:08:54.682Z,94923.91
2024-01-11T02:11:22.599Z,94914.97
2024-01-11T02:13:50.615Z,94918.22
2024-01-11T02:16:17.286Z,94921.88
2024-01-11T02:18:44.026Z,94925.00
2024-01-11T02:21:15.599Z,94922.53
2024-01-11T02:23:47.838Z,94924.47
2024-01-11T02:26:16.106Z,94918.88
2024-01-11T02:28:46.640Z,94927.41
2024-01-11T02:31:15.311Z,94922.31
2024-01-11T02:33:43.440Z,94927.19
2024-01-11T02:36:10.226Z,94921.22
2024-01-11T02:38:37.327Z,94913.03
2024-01-11T02:41:04.670Z,94916.28
2024-01-11T02:43:31.500Z,94919.91
2024-01-11T02:45:59.783Z,94921.16
2024-01-11T02:48:30.599Z,94908.50
2024-01-11T02:50:58.763Z,94910.69
2024-01-11T02:53:25.583Z,94904.88
2024-01-11T02:55:52.279Z,94908.31
2024-01-11T02:58:18.972Z,94905.59
2024-01-11T03:00:45.753Z,94901.19
2024-01-11T03:03:12.728Z,94900.00
2024-01-11T03:05:40.338Z,94896.66
2024-01-11T03:08:07.128Z,94901.41
2024-01-11T03:10:33.871Z,94898.94
2024-01-11T03:13:00.924Z,94899.41
2024-01-11T03:15:27.593Z,94904.44
2024-01-11T03:17:54.384Z,94905.19
2024-01-11T03:20:25.735Z,94909.09
2024-01-11T03:22:53.874Z,94911.00
2024-01-11T03:25:20.580Z,94905.03
2024-01-11T03:27:47.224Z,94901.53
2024-01-11T03:30:14.304Z,94900.50
2024-01-11T03:32:41.403Z,94901.31
2024-01-11T03:35:11.406Z,94898.53
2024-01-11T03:37:38.365Z,94896.81
2024-01-11T03:40:05.648Z,94894.41
2024-01-11T03:42:32.546Z,94894.25
2024-01-11T03:44:59.199Z,94897.44
2024-01-11T03:47:25.944Z,94896.88
2024-01-11T03:49:52.641Z,94891.59
2024-01-11T03:52:19.404Z,94897.44
2024-01-11T03:54:46.289Z,94898.13
2024-01-11T03:57:13.031Z,94887.72
2024-01-11T03:59:39.818Z,94884.84
2024-01-11T04:02:06.933Z,94888.84
2024-01-11T04:04:34.094Z,94881.63
2024-01-11T04:07:00.775Z,94879.00
2024-01-11T04:09:27.480Z,94883.81
2024-01-11T04:11:54.152Z,94877.63
2024-01-11T04:14:20.905Z,94874.03
2024-01-11T04:16:47.578Z,94871.72
2024-01-11T04:19:14.436Z,94872.81
2024-01-11T04:21:41.331Z,94867.00
2024-01-11T04:24:08.977Z,94869.25
2024-01-11T04:26:36.084Z,94854.50
2024-01-11T04:29:03.046Z,94864.16
2024-01-11T04:31:30.071Z,94857.75
2024-01-11T04:33:57.443Z,94866.09
2024-01-11T04:36:24.269Z,94867.00
2024-01-11T04:38:51.145Z,94869.53
2024-01-11T04:41:17.828Z,94864.31
2024-01-11T04:43:45.653Z,94874.47
2024-01-11T04:46:15.831Z,94880.06
2024-01-11T04:48:42.644Z,94876.75
2024-01-11T04:51:09.414Z,94883.84
2024-01-11T04:53:43.241Z,94876.09
2024-01-11T04:56:11.484Z,94887.91
2024-01-11T04:58:40.586Z,94878.66
2024-01-11T05:01:07.821Z,94877.41
2024-01-11T05:03:34.604Z,94882.34
2024-01-11T05:06:01.427Z,94872.66
2024-01-11T05:08:29.184Z,94877.75
2024-01-11T05:10:56.098Z,94880.09
2024-01-11T05:13:23.299Z,94881.06
2024-01-11T05:15:50.017Z,94879.94
2024-01-11T05:18:16.969Z,94866.47
2024-01-11T05:20:43.843Z,94865.41
2024-01-11T05:23:10.623Z,94859.56
2024-01-11T05:25:37.330Z,94856.16
2024-01-11T05:28:04.923Z,94854.94
2024-01-11T05:30:32.178Z,94850.47
2024-01-11T05:32:59.377Z,94857.03
2024-01-11T05:35:28.593Z,94851.56
2024-01-11T05:37:58.370Z,94851.94
2024-01-11T05:40:25.104Z,94848.94
2024-01-11T05:42:51.803Z,94851.47
2024-01-11T05:45:20.945Z,94844.97
2024-01-11T05:47:51.204Z,94844.53
2024-01-11T05:50:18.404Z,94846.44
2024-01-11T05:52:45.180Z,94846.63
2024-01-11T05:55:11.873Z,94840.50
2024-01-11T05:57:38.549Z,94842.94
2024-01-11T06:00:06.480Z,94828.75
2024-01-11T06:02:33.385Z,94833.28
2024-01-11T06:05:00.100Z,94835.41
2024-01-11T06:07:26.891Z,94827.75
2024-01-11T06:09:54.251Z,94822.00
2024-01-11T06:12:20.934Z,94831.44
2024-01-11T06:14:47.865Z,94831.63
2024-01-11T06:17:14.915Z,94831.97
2024-01-11T06:19:41.664Z,94829.22
2024-01-11T06:22:08.349Z,94828.06
2024-01-11T06:24:35.027Z,94828.81
2024-01-11T06:27:01.845Z,94820.00
2024-01-11T06:29:28.844Z,94825.66
2024-01-11T06:31:55.642Z,94828.66
2024-01-11T06:34:22.285Z,94812.31
2024-01-11T06:36:49.026Z,94815.13
2024-01-11T06:39:15.909Z,94811.97
2024-01-11T06:41:42.832Z,94811.97
2024-01-11T06:44:10.112Z,94810.16
2024-01-11T06:46:37.429Z,94800.41
2024-01-11T06:49:04.889Z,94799.44
2024-01-11T06:51:31.679Z,94800.47
2024-01-11T06:53:58.371Z,94804.63
2024-01-11T06:56:25.223Z,94808.47
2024-01-11T06:58:52.206Z,94810.53
2024-01-11T07:01:19.029Z,94812.69
2024-01-11T07:03:45.984Z,94807.81
2024-01-11T07:06:13.382Z,94810.94
2024-01-11T07:08:40.222Z,94807.56
2024-01-11T07:11:06.963Z,94820.78
2024-01-11T07:13:33.708Z,94814.16
2024-01-11T07:16:01.042Z,94812.91
2024-01-11T07:18:27.842Z,94811.59
2024-01-11T07:20:54.688Z,94816.63
2024-01-11T07:23:21.852Z,94815.78
2024-01-11T07:25:48.866Z,94806.78
2024-01-11T07:28:15.680Z,94805.41
2024-01-11T07:30:42.352Z,94807.34
2024-01-11T07:33:10.802Z,94800.41
2024-01-11T07:35:37.971Z,94800.28
2024-01-11T07:38:05.241Z,94803.34
2024-01-11T07:40:34.596Z,94806.94
2024-01-11T07:43:02.772Z,94805.31
2024-01-11T07:45:29.466Z,94800.88
2024-01-11T07:47:56.185Z,94804.56
2024-01-11T07:50:23.203Z,94800.41
2024-01-11T07:52:50.814Z,94805.25
2024-01-11T07:55:17.962Z,94793.88
2024-01-11T07:57:44.785Z,94800.84
2024-01-11T08:00:11.787Z,94793.09
2024-01-11T08:02:39.203Z,94791.03
2024-01-11T08:05:06.568Z,94783.31
2024-01-11T08:07:33.282Z,94788.78
2024-01-11T08:09:59.910Z,94785.22
2024-01-11T08:12:26.586Z,94790.78
2024-01-11T08:14:53.295Z,94777.31
2024-01-11T08:17:20.466Z,94772.88
2024-01-11T08:19:47.236Z,94777.59
2024-01-11T08:22:14.074Z,94775.81
2024-01-11T08:24:40.750Z,94776.16
2024-01-11T08:27:07.492Z,94773.84
2024-01-11T08:29:34.628Z,94767.88
2024-01-11T08:32:15.332Z,94760.72
2024-01-11T08:34:51.173Z,94767.38
2024-01-11T08:37:17.997Z,94771.59
2024-01-11T08:39:44.861Z,94771.19
2024-01-11T08:42:11.507Z,94769.53
2024-01-11T08:44:42.091Z,94769.19
2024-01-11T08:47:10.734Z,94777.84
2024-01-11T08:49:39.676Z,94769.94
2024-01-11T08:52:07.062Z,94778.38
2024-01-11T08:54:34.485Z,94775.75
2024-01-11T08:57:01.500Z,94762.59
2024-01-11T08:59:28.287Z,94765.75
2024-01-11T09:02:02.465Z,94756.13
2024-01-11T09:04:37.539Z,94754.16
2024-01-11T09:07:04.729Z,94754.94
2024-01-11T09:09:34.600Z,94743.47
2024-01-11T09:12:01.432Z,94748.25
2024-01-11T09:14:28.345Z,94736.16
2024-01-11T09:16:59.139Z,94723.84
2024-01-11T09:19:26.579Z,94731.97
2024-01-11T09:21:53.352Z,94728.31
2024-01-11T09:24:20.047Z,94725.41
2024-01-11T09:26:46.944Z,94723.06
2024-01-11T09:29:13.672Z,94723.56
2024-01-11T09:31:40.383Z,94716.75
2024-01-11T09:34:07.309Z,94719.31
2024-01-11T09:36:34.336Z,94713.00
2024-01-11T09:39:01.370Z,94712.81
2024-01-11T09:41:28.464Z,94699.91
2024-01-11T09:43:55.743Z,94695.66
2024-01-11T09:46:24.040Z,94692.97
2024-01-11T09:48:53.211Z,94681.66
2024-01-11T09:51:20.095Z,94678.00
2024-01-11T09:53:48.490Z,94668.97
2024-01-11T09:56:15.204Z,94664.28
2024-01-11T09:58:49.815Z,94668.63
2024-01-11T10:01:17.159Z,94664.78
2024-01-11T10:03:47.398Z,94656.50
2024-01-11T10:06:16.875Z,94660.16
2024-01-11T10:08:43.710Z,94658.47
2024-01-11T10:11:10.462Z,94654.94
2024-01-11T10:13:37.365Z,94644.59
2024-01-11T10:16:14.724Z,94642.50
2024-01-11T10:18:41.815Z,94628.34
2024-01-11T10:21:10.948Z,94625.13
2024-01-11T10:23:38.609Z,94625.34
2024-01-11T10:26:05.316Z,94615.66
2024-01-11T10:28:32.065Z,94615.50
2024-01-11T10:30:59.248Z,94623.16
2024-01-11T10:33:26.283Z,94607.66
2024-01-11T10:35:53.064Z,94602.06
2024-01-11T10:38:20.385Z,94597.31
2024-01-11T10:40:47.507Z,94596.06
2024-01-11T10:43:20.614Z,94585.94
2024-01-11T10:45:55.074Z,94584.41
2024-01-11T10:48:23.972Z,94585.72
2024-01-11T10:50:56.096Z,94582.75
2024-01-11T10:53:47.404Z,94576.53
2024-01-11T10:56:19.577Z,94576.75
2024-01-11T10:58:47.850Z,94565.00
2024-01-11T11:01:15.406Z,94566.25
2024-01-11T11:03:44.673Z,94549.59
2024-01-11T11:06:13.253Z,94557.44
2024-01-11T11:08:41.641Z,94541.91
2024-01-11T11:11:09.201Z,94536.00
2024-01-11T11:13:36.319Z,94534.78
2024-01-11T11:16:05.397Z,94527.28
2024-01-11T11:18:36.475Z,94525.88
2024-01-11T11:21:12.682Z,94515.19
2024-01-11T11:23:39.640Z,94519.22
2024-01-11T11:26:10.968Z,94506.47
2024-01-11T11:28:37.961Z,94502.16
2024-01-11T11:31:04.830Z,94496.09
2024-01-11T11:33:34.767Z,94483.41
2024-01-11T11:36:03.959Z,94477.72
2024-01-11T11:38:32.566Z,94476.50
2024-01-11T11:41:01.707Z,94475.75
2024-01-11T11:43:29.607Z,94465.16
2024-01-11T11:45:59.684Z,94465.88
2024-01-11T11:48:32.640Z,94460.25
2024-01-11T11:51:10.022Z,94466.06
2024-01-11T11:53:41.696Z,94464.53
2024-01-11T11:56:18.244Z,94465.41
2024-01-11T11:58:46.380Z,94468.03
2024-01-11T12:01:15.415Z,94452.81
2024-01-11T12:03:43.378Z,94451.69
2024-01-11T12:06:12.074Z,94447.19
2024-01-11T12:08:42.858Z,94448.88
2024-01-11T12:11:10.277Z,94438.38
2024-01-11T12:13:38.754Z,94439.63
2024-01-11T12:16:05.527Z,94425.25
2024-01-11T12:18:32.879Z,94425.28
2024-01-11T12:21:00.518Z,94419.41
2024-01-11T12:23:31.197Z,94415.91
2024-01-11T12:25:58.883Z,94411.78
2024-01-11T12:28:26.029Z,94403.97
2024-01-11T12:30:53.111Z,94400.06
2024-01-11T12:33:20.943Z,94407.56
2024-01-11T12:35:47.926Z,94390.66
2024-01-11T12:38:14.779Z,94389.50
2024-01-11T12:40:41.698Z,94385.88
2024-01-11T12:43:08.942Z,94381.56
2024-01-11T12:45:36.343Z,94383.25
2024-01-11T12:48:05.010Z,94384.13
2024-01-11T12:50:34.992Z,94381.06
2024-01-11T12:53:19.075Z,94371.97
2024-01-11T12:55:55.338Z,94364.44
2024-01-11T12:58:27.412Z,94361.59
2024-01-11T13:00:55.331Z,94370.44
2024-01-11T13:03:22.470Z,94355.31
2024-01-11T13:05:50.249Z,94345.66
2024-01-11T13:08:19.500Z,94349.38
2024-01-11T13:10:50.638Z,94347.41
2024-01-11T13:13:17.509Z,94347.72
2024-01-11T13:15:44.427Z,94346.06
2024-01-11T13:18:11.301Z,94346.41
2024-01-11T13:20:38.258Z,94333.50
2024-01-11T13:23:21.096Z,94328.22
2024-01-11T13:25:49.298Z,94326.88
2024-01-11T13:28:16.486Z,94329.06
2024-01-11T13:30:44.943Z,94324.16
2024-01-11T13:33:12.311Z,94327.28
2024-01-11T13:35:40.753Z,94316.72
2024-01-11T13:38:07.867Z,94314.56
2024-01-11T13:40:34.603Z,94296.19
2024-01-11T13:43:01.861Z,94307.84
2024-01-11T13:45:29.325Z,94309.41
2024-01-11T13:47:56.143Z,94302.03
2024-01-11T13:50:25.920Z,94299.91
2024-01-11T13:52:53.808Z,94298.25
2024-01-11T13:55:23.941Z,94295.03
2024-01-11T13:57:51.814Z,94297.19
2024-01-11T14:00:20.184Z,94293.44
2024-01-11T14:02:48.744Z,94294.34
2024-01-11T14:05:18.841Z,94285.66
2024-01-11T14:07:47.272Z,94283.66
2024-01-11T14:10:16.190Z,94270.28
2024-01-11T14:12:42.972Z,94268.94
2024-01-11T14:15:14.137Z,94265.00
2024-01-11T14:17:42.386Z,94262.69
2024-01-11T14:20:15.269Z,94264.72
2024-01-11T14:22:43.257Z,94259.06
2024-01-11T14:25:12.884Z,94260.63
2024-01-11T14:27:40.084Z,94251.53
2024-01-11T14:30:08.126Z,94262.00
2024-01-11T14:32:37.524Z,94256.03
2024-01-11T14:35:08.616Z,94254.56
2024-01-11T14:37:37.475Z,94256.50
2024-01-11T14:40:05.751Z,94250.81
2024-01-11T14:42:32.471Z,94248.38
2024-01-11T14:44:59.166Z,94247.13
2024-01-11T14:47:26.993Z,94249.84
2024-01-11T14:49:53.745Z,94255.63
2024-01-11T14:52:20.395Z,94248.31
2024-01-11T14:54:48.997Z,94251.31
2024-01-11T14:57:16.654Z,94249.59
2024-01-11T14:59:44.852Z,94248.84
2024-01-11T15:02:12.210Z,94250.66
2024-01-11T15:04:39.812Z,94248.16
2024-01-11T15:07:06.846Z,94254.78
2024-01-11T15:09:36.418Z,94247.88
2024-01-11T15:12:04.425Z,94251.97
2024-01-11T15:14:31.155Z,94248.47
2024-01-11T15:16:58.587Z,94244.63
2024-01-11T15:19:25.838Z,94248.34
2024-01-11T15:21:53.766Z,94251.19
2024-01-11T15:24:21.232Z,94255.28
2024-01-11T15:26:49.864Z,94247.69
2024-01-11T15:29:17.621Z,94244.41
2024-01-11T15:31:47.271Z,94246.88
2024-01-11T15:34:15.938Z,94255.03
2024-01-11T15:36:43.729Z,94254.59
2024-01-11T15:39:21.209Z,94256.78
2024-01-11T15:41:58.289Z,94254.91
2024-01-11T15:44:27.970Z,94257.53
2024-01-11T15:46:56.251Z,94260.28
2024-01-11T15:49:23.729Z,94263.63
2024-01-11T15:51:50.574Z,94271.75
2024-01-11T15:54:17.283Z,94261.16
2024-01-11T15:56:44.166Z,94263.50
2024-01-11T15:59:10.941Z,94262.13
2024-01-11T16:01:50.288Z,94262.66
2024-01-11T16:04:23.779Z,94274.75
2024-01-11T16:06:50.699Z,94266.25
2024-01-11T16:09:17.607Z,94273.81
2024-01-11T16:11:44.485Z,94269.94
2024-01-11T16:14:11.413Z,94268.34
2024-01-11T16:16:38.326Z,94255.97
2024-01-11T16:19:05.365Z,94255.97
2024-01-11T16:21:32.720Z,94252.59
2024-01-11T16:24:02.865Z,94252.28
2024-01-11T16:26:30.255Z,94251.69
2024-01-11T16:28:56.951Z,94237.91
2024-01-11T16:31:26.499Z,94251.50
2024-01-11T16:33:54.115Z,94256.97
2024-01-11T16:36:21.173Z,94245.22
2024-01-11T16:38:48.058Z,94245.28
2024-01-11T16:41:15.158Z,94243.81
2024-01-11T16:43:41.945Z,94243.06
2024-01-11T16:46:08.869Z,94240.25
2024-01-11T16:48:36.035Z,94241.81
2024-01-11T16:51:03.983Z,94257.16
2024-01-11T16:53:31.478Z,94245.50
2024-01-11T16:55:58.381Z,94245.44
2024-01-11T16:58:25.300Z,94240.91
2024-01-11T17:00:52.101Z,94240.16
2024-01-11T17:03:18.842Z,94244.28
2024-01-11T17:05:45.927Z,94238.53
2024-01-11T17:08:12.677Z,94237.03
2024-01-11T17:10:40.678Z,94231.31
2024-01-11T17:13:07.517Z,94223.72
2024-01-11T17:15:34.280Z,94222.97
2024-01-11T17:18:01.142Z,94232.06
2024-01-11T17:20:28.356Z,94228.47
2024-01-11T17:22:55.399Z,94219.44
2024-01-11T17:25:22.376Z,94221.81
2024-01-11T17:27:49.259Z,94230.03
2024-01-11T17:30:16.559Z,94223.47
2024-01-11T17:32:43.403Z,94225.03
2024-01-11T17:35:10.345Z,94218.78
2024-01-11T17:37:37.411Z,94228.34
2024-01-11T17:40:06.034Z,94218.91
2024-01-11T17:42:32.719Z,94214.66
2024-01-11T17:44:59.542Z,94223.78
2024-01-11T17:47:26.495Z,94222.97
2024-01-11T17:49:53.348Z,94221.41
2024-01-11T17:52:23.482Z,94224.47
2024-01-11T17:54:50.180Z,94220.03
2024-01-11T17:57:16.902Z,94219.78
2024-01-11T17:59:45.341Z,94227.56
2024-01-11T18:02:12.264Z,94217.78
2024-01-11T18:04:39.233Z,94228.41
2024-01-11T18:07:06.158Z,94223.19
2024-01-11T18:09:36.358Z,94212.47
2024-01-11T18:12:04.417Z,94226.88
2024-01-11T18:14:31.117Z,94204.16
2024-01-11T18:16:57.858Z,94216.78
2024-01-11T18:19:27.043Z,94215.94
2024-01-11T18:21:53.864Z,94213.53
2024-01-11T18:24:21.888Z,94209.66
2024-01-11T18:26:48.737Z,94227.63
2024-01-11T18:29:15.601Z,94224.56
2024-01-11T18:31:46.882Z,94216.94
2024-01-11T18:34:13.716Z,94218.16
2024-01-11T18:36:45.444Z,94219.41
2024-01-11T18:39:12.653Z,94219.38
2024-01-11T18:41:39.573Z,94216.88
2024-01-11T18:44:06.389Z,94222.06
2024-01-11T18:46:38.528Z,94218.84
2024-01-11T18:49:05.331Z,94220.63
2024-01-11T18:51:32.880Z,94213.13
2024-01-11T18:54:00.493Z,94221.66
2024-01-11T18:56:27.327Z,94217.81
2024-01-11T18:58:54.203Z,94209.56
2024-01-11T19:01:26.588Z,94214.81
2024-01-11T19:03:53.829Z,94219.53
2024-01-11T19:06:21.844Z,94217.47
2024-01-11T19:08:49.300Z,94210.00
2024-01-11T19:11:17.019Z,94202.25
2024-01-11T19:13:45.104Z,94190.69
2024-01-11T19:16:11.903Z,94191.34
2024-01-11T19:18:38.824Z,94187.53
2024-01-11T19:21:05.985Z,94203.28
2024-01-11T19:23:33.774Z,94189.09
2024-01-11T19:26:01.163Z,94190.16
2024-01-11T19:28:28.249Z,94192.56
2024-01-11T19:30:55.120Z,94188.38
2024-01-11T19:33:22.478Z,94193.53
2024-01-11T19:35:49.588Z,94190.16
2024-01-11T19:38:16.546Z,94185.06
2024-01-11T19:40:43.291Z,94192.78
2024-01-11T19:43:10.413Z,94185.81
2024-01-11T19:45:37.371Z,94190.28
2024-01-11T19:48:04.932Z,94181.69
2024-01-11T19:50:34.417Z,94189.31
2024-01-11T19:53:01.684Z,94182.81
2024-01-11T19:55:28.360Z,94185.50
2024-01-11T19:57:55.217Z,94182.03
2024-01-11T20:00:21.960Z,94186.03
2024-01-11T20:02:48.971Z,94176.50
2024-01-11T20:05:16.006Z,94175.13
2024-01-11T20:07:44.738Z,94173.19
2024-01-11T20:10:12.550Z,94167.16
2024-01-11T20:12:39.320Z,94172.53
2024-01-11T20:15:08.322Z,94159.44
2024-01-11T20:17:35.448Z,94169.38
2024-01-11T20:20:02.332Z,94164.03
2024-01-11T20:22:29.173Z,94157.13
2024-01-11T20:24:56.224Z,94157.00
2024-01-11T20:27:23.504Z,94161.19
2024-01-11T20:29:50.646Z,94160.41
2024-01-11T20:32:17.654Z,94161.13
2024-01-11T20:34:44.718Z,94161.34
2024-01-11T20:37:11.604Z,94160.50
2024-01-11T20:39:39.266Z,94173.44
2024-01-11T20:42:06.400Z,94171.78
2024-01-11T20:44:36.661Z,94179.59
2024-01-11T20:47:04.556Z,94180.69
2024-01-11T20:49:31.417Z,94174.16
2024-01-11T20:52:00.313Z,94172.91
2024-01-11T20:54:27.296Z,94183.66
2024-01-11T20:56:56.136Z,94179.78
2024-01-11T20:59:23.270Z,94189.50
2024-01-11T21:01:50.094Z,94176.97
2024-01-11T21:04:16.796Z,94188.38
2024-01-11T21:06:45.032Z,94177.03
2024-01-11T21:09:12.244Z,94180.00
2024-01-11T21:11:38.995Z,94183.34
2024-01-11T21:14:05.901Z,94183.63
2024-01-11T21:16:32.608Z,94176.84
2024-01-11T21:18:59.677Z,94175.63
2024-01-11T21:21:27.734Z,94185.16
2024-01-11T21:23:58.607Z,94173.47
2024-01-11T21:26:25.538Z,94168.28
2024-01-11T21:28:54.882Z,94177.06
2024-01-11T21:31:26.462Z,94166.81
2024-01-11T21:33:53.770Z,94171.28
2024-01-11T21:36:25.107Z,94169.88
2024-01-11T21:38:54.827Z,94168.59
2024-01-11T21:41:27.537Z,94164.50
2024-01-11T21:43:58.682Z,94153.16
2024-01-11T21:46:27.138Z,94145.41
2024-01-11T21:48:54.352Z,94148.00
2024-01-11T21:51:21.038Z,94156.69
2024-01-11T21:53:47.704Z,94156.66
2024-01-11T21:56:14.605Z,94153.72
2024-01-11T21:58:41.321Z,94148.28
2024-01-11T22:01:08.527Z,94143.94
2024-01-11T22:03:36.327Z,94143.09
2024-01-11T22:06:04.482Z,94147.28
2024-01-11T22:08:31.676Z,94143.78
2024-01-11T22:10:58.603Z,94144.47
2024-01-11T22:13:25.291Z,94151.88
2024-01-11T22:15:52.194Z,94148.44
2024-01-11T22:18:19.092Z,94154.72
2024-01-11T22:20:46.070Z,94141.69
2024-01-11T22:23:12.973Z,94142.13
2024-01-11T22:25:40.058Z,94141.81
2024-01-11T22:28:06.840Z,94142.94
2024-01-11T22:30:34.337Z,94135.09
2024-01-11T22:33:01.606Z,94140.69
2024-01-11T22:35:28.537Z,94133.41
2024-01-11T22:37:55.421Z,94138.94
2024-01-11T22:40:22.229Z,94134.31
2024-01-11T22:42:48.873Z,94133.97
2024-01-11T22:45:15.505Z,94123.78
2024-01-11T22:47:42.440Z,94132.31
2024-01-11T22:50:09.736Z,94124.44
2024-01-11T22:52:36.562Z,94131.41
2024-01-11T22:55:03.561Z,94129.50
2024-01-11T22:57:30.266Z,94139.47
2024-01-11T22:59:57.155Z,94126.63
2024-01-11T23:02:23.851Z,94139.84
2024-01-11T23:04:50.970Z,94128.09
2024-01-11T23:07:18.577Z,94139.09
2024-01-11T23:09:45.312Z,94133.34
2024-01-11T23:12:12.482Z,94139.38
2024-01-11T23:14:39.156Z,94138.84
2024-01-11T23:17:07.361Z,94135.16
2024-01-11T23:19:34.553Z,94135.63
2024-01-11T23:22:01.487Z,94123.97
2024-01-11T23:24:28.143Z,94134.84
2024-01-11T23:26:55.096Z,94126.63
2024-01-11T23:29:22.103Z,94120.84
2024-01-11T23:31:49.318Z,94122.50
2024-01-11T23:34:16.434Z,94120.91
2024-01-11T23:36:43.378Z,94120.59
2024-01-11T23:39:10.080Z,94119.63
2024-01-11T23:41:36.875Z,94114.47
2024-01-11T23:44:03.695Z,94112.50
2024-01-11T23:46:30.480Z,94112.78
2024-01-11T23:48:57.403Z,94115.16
2024-01-11T23:51:24.437Z,94121.06
2024-01-11T23:53:51.385Z,94124.53
2024-01-11T23:56:18.236Z,94135.50
2024-01-11T23:58:45.065Z,94137.91
